Gunder, Iowa
Current Conditions -  °F | °C
As of 8:35 PM on Wednesday 26 Nov 2014 (Local Time) from KPDC Reporting Station
Light Snow Light Snow  
Wind Chill: 26°   Ceiling: 2600
Heat Index: 26°   Visibility: 4mi
Dew Point: 23°   Wind: 0mph
Humidity: 89%   Direction: NA
Pressure: 30.24"   Gusts: NA
Location:  42.9942°N, 91.5477°W
Report Text: KPDC 270235Z AUTO 00000KT 4SM -SN SCT015 BKN026 OVC050 M03/M05 A3024 RMK AO2 T10351050
Loading
Personal Weather Stations






























Interactive Weather Map New forecast layout! Learn more

10-Day Weather Forecast

Advertisements
Track Severe Weather on mobile